createdAt,value
2024-05-09T00:01:47.211Z,101985.06
2024-05-09T00:04:20.041Z,101985.94
2024-05-09T00:06:49.984Z,101979.69
2024-05-09T00:09:19.883Z,101986.81
2024-05-09T00:11:50.058Z,101978.00
2024-05-09T00:14:20.073Z,101977.03
2024-05-09T00:16:51.277Z,101970.72
2024-05-09T00:19:24.230Z,101965.34
2024-05-09T00:21:54.198Z,101961.91
2024-05-09T00:24:24.137Z,101961.91
2024-05-09T00:26:54.111Z,101951.41
2024-05-09T00:29:24.609Z,101961.91
2024-05-09T00:31:54.684Z,101965.56
2024-05-09T00:34:27.707Z,101962.13
2024-05-09T00:36:57.740Z,101954.19
2024-05-09T00:39:27.646Z,101956.75
2024-05-09T00:41:57.522Z,101962.13
2024-05-09T00:44:27.527Z,101956.75
2024-05-09T00:46:57.767Z,101951.41
2024-05-09T00:49:31.213Z,101953.09
2024-05-09T00:52:02.271Z,101950.53
2024-05-09T00:54:33.349Z,101955.06
2024-05-09T00:57:06.033Z,101957.75
2024-05-09T00:59:36.591Z,101960.41
2024-05-09T01:02:07.215Z,101962.13
2024-05-09T01:04:39.935Z,101956.75
2024-05-09T01:07:10.441Z,101956.00
2024-05-09T01:09:40.412Z,101944.31
2024-05-09T01:12:10.747Z,101944.53
2024-05-09T01:14:40.737Z,101945.28
2024-05-09T01:17:10.874Z,101951.41
2024-05-09T01:19:43.626Z,101942.59
2024-05-09T01:22:13.638Z,101936.56
2024-05-09T01:24:46.217Z,101932.94
2024-05-09T01:27:16.155Z,101931.19
2024-05-09T01:29:46.024Z,101923.03
2024-05-09T01:32:16.153Z,101940.00
2024-05-09T01:34:46.566Z,101927.56
2024-05-09T01:37:16.613Z,101929.28
2024-05-09T01:39:49.217Z,101923.91
2024-05-09T01:42:19.335Z,101922.22
2024-05-09T01:44:49.578Z,101923.91
2024-05-09T01:47:19.620Z,101929.28
2024-05-09T01:49:49.655Z,101926.59
2024-05-09T01:52:19.625Z,101937.31
2024-05-09T01:54:52.212Z,101927.56
2024-05-09T01:57:22.141Z,101925.84
2024-05-09T01:59:52.068Z,101924.13
2024-05-09T02:02:22.050Z,101923.16
2024-05-09T02:04:52.078Z,101920.47
2024-05-09T02:07:22.146Z,101914.16
2024-05-09T02:09:57.336Z,101922.22
2024-05-09T02:12:27.303Z,101922.22
2024-05-09T02:14:57.284Z,101921.44
2024-05-09T02:17:27.313Z,101915.97
2024-05-09T02:19:57.382Z,101908.03
2024-05-09T02:22:27.278Z,101915.00
2024-05-09T02:24:59.826Z,101911.47
2024-05-09T02:27:29.792Z,101911.47
2024-05-09T02:29:59.644Z,101913.19
2024-05-09T02:32:29.718Z,101908.78
2024-05-09T02:34:59.739Z,101906.09
2024-05-09T02:37:27.082Z,101895.38
2024-05-09T02:39:59.732Z,101893.66
2024-05-09T02:42:27.123Z,101893.66
2024-05-09T02:44:57.230Z,101895.59
2024-05-09T02:47:24.610Z,101890.25
2024-05-09T02:49:55.177Z,101893.34
2024-05-09T02:52:22.490Z,101886.38
2024-05-09T02:54:52.474Z,101890.91
2024-05-09T02:57:22.409Z,101890.91
2024-05-09T02:59:52.349Z,101883.78
2024-05-09T03:02:19.951Z,101872.25
2024-05-09T03:04:50.014Z,101878.44
2024-05-09T03:07:19.070Z,101866.88
2024-05-09T03:09:50.327Z,101876.72
2024-05-09T03:12:17.749Z,101874.81
2024-05-09T03:14:53.010Z,101873.94
2024-05-09T03:17:20.379Z,101864.69
2024-05-09T03:19:50.433Z,101863.63
2024-05-09T03:22:17.718Z,101863.22
2024-05-09T03:24:47.634Z,101860.41
2024-05-09T03:27:14.906Z,101864.06
2024-05-09T03:29:44.850Z,101858.72
2024-05-09T03:32:14.867Z,101856.75
2024-05-09T03:34:44.903Z,101866.75
2024-05-09T03:37:16.250Z,101853.56
2024-05-09T03:39:46.194Z,101844.78
2024-05-09T03:42:13.410Z,101859.66
2024-05-09T03:44:43.428Z,101858.72
2024-05-09T03:47:13.420Z,101864.06
2024-05-09T03:49:43.329Z,101861.28
2024-05-09T03:52:13.273Z,101860.41
2024-05-09T03:54:45.342Z,101857.63
2024-05-09T03:57:15.263Z,101855.06
2024-05-09T03:59:42.500Z,101848.59
2024-05-09T04:02:12.579Z,101847.75
2024-05-09T04:04:45.138Z,101840.31
2024-05-09T04:07:15.125Z,101837.03
2024-05-09T04:09:43.635Z,101846.13
2024-05-09T04:12:13.627Z,101836.28
2024-05-09T04:14:43.013Z,101837.66
2024-05-09T04:17:12.996Z,101828.75
2024-05-09T04:19:40.337Z,101833.16
2024-05-09T04:22:13.102Z,101835.53
2024-05-09T04:24:40.351Z,101833.16
2024-05-09T04:27:10.276Z,101835.72
2024-05-09T04:29:37.695Z,101834.84
2024-05-09T04:32:08.254Z,101831.44
2024-05-09T04:34:36.390Z,101834.25
2024-05-09T04:37:07.248Z,101831.22
2024-05-09T04:39:37.168Z,101835.72
2024-05-09T04:42:07.530Z,101825.97
2024-05-09T04:44:34.966Z,101831.22
2024-05-09T04:47:04.902Z,101825.84
2024-05-09T04:49:32.172Z,101828.53
2024-05-09T04:52:02.097Z,101836.59
2024-05-09T04:54:35.856Z,101836.59
2024-05-09T04:57:09.254Z,101826.19
2024-05-09T04:59:36.670Z,101837.41
2024-05-09T05:02:06.883Z,101834.84
2024-05-09T05:04:34.283Z,101836.91
2024-05-09T05:07:04.242Z,101841.94
2024-05-09T05:09:31.712Z,101834.84
2024-05-09T05:12:05.659Z,101837.03
2024-05-09T05:14:35.713Z,101831.66
2024-05-09T05:17:05.724Z,101826.31
2024-05-09T05:19:33.136Z,101817.50
2024-05-09T05:22:03.149Z,101817.28
2024-05-09T05:24:30.454Z,101823.41
2024-05-09T05:27:00.390Z,101833.16
2024-05-09T05:29:27.692Z,101827.78
2024-05-09T05:32:00.440Z,101821.66
2024-05-09T05:34:27.810Z,101821.56
2024-05-09T05:36:57.728Z,101819.84
2024-05-09T05:39:24.983Z,101817.06
2024-05-09T05:41:54.901Z,101819.72
2024-05-09T05:44:22.297Z,101815.34
2024-05-09T05:46:52.312Z,101817.06
2024-05-09T05:49:22.381Z,101818.88
2024-05-09T05:51:52.446Z,101817.06
2024-05-09T05:54:19.751Z,101827.03
2024-05-09T05:56:49.677Z,101824.34
2024-05-09T05:59:16.946Z,101817.28
2024-05-09T06:01:47.744Z,101808.91
2024-05-09T06:04:15.087Z,101826.09
2024-05-09T06:06:47.699Z,101819.84
2024-05-09T06:09:15.001Z,101813.38
2024-05-09T06:11:45.814Z,101816.81
2024-05-09T06:14:13.201Z,101823.06
2024-05-09T06:16:43.634Z,101816.81
2024-05-09T06:19:11.127Z,101813.16
2024-05-09T06:21:41.100Z,101809.75
2024-05-09T06:24:11.126Z,101804.63
2024-05-09T06:26:44.937Z,101802.88
2024-05-09T06:29:14.209Z,101815.13
2024-05-09T06:31:44.487Z,101799.97
2024-05-09T06:34:11.923Z,101804.63
2024-05-09T06:36:42.495Z,101795.81
2024-05-09T06:39:12.372Z,101800.09
2024-05-09T06:41:42.414Z,101803.63
2024-05-09T06:44:10.116Z,101795.59
2024-05-09T06:46:42.075Z,101801.19
2024-05-09T06:49:11.627Z,101800.97
2024-05-09T06:51:42.035Z,101801.94
2024-05-09T06:54:11.992Z,101799.25
2024-05-09T06:56:42.127Z,101798.28
2024-05-09T06:59:09.478Z,101803.63
2024-05-09T07:01:39.493Z,101797.28
2024-05-09T07:04:07.109Z,101795.38
2024-05-09T07:06:37.162Z,101792.56
2024-05-09T07:09:07.192Z,101797.94
2024-05-09T07:11:38.261Z,101798.81
2024-05-09T07:14:08.314Z,101795.25
2024-05-09T07:16:35.808Z,101797.28
2024-05-09T07:19:05.873Z,101787.00
2024-05-09T07:21:33.247Z,101771.38
2024-05-09T07:24:03.150Z,101773.13
2024-05-09T07:26:30.453Z,101793.47
2024-05-09T07:29:03.112Z,101781.88
2024-05-09T07:31:31.468Z,101780.06
2024-05-09T07:34:01.476Z,101779.09
2024-05-09T07:36:28.771Z,101779.94
2024-05-09T07:38:58.895Z,101781.66
2024-05-09T07:41:26.363Z,101783.38
2024-05-09T07:43:56.263Z,101771.16
2024-05-09T07:47:20.746Z,101783.38
2024-05-09T07:50:55.986Z,101783.16
2024-05-09T07:53:27.078Z,101787.78
2024-05-09T07:54:53.480Z,101779.72
2024-05-09T07:57:20.867Z,101781.44
2024-05-09T07:59:50.802Z,101777.78
2024-05-09T08:02:20.836Z,101772.44
2024-05-09T08:04:51.079Z,101765.09
2024-05-09T08:07:19.170Z,101762.53
2024-05-09T08:09:49.436Z,101772.22
2024-05-09T08:12:16.749Z,101761.69
2024-05-09T08:14:46.870Z,101770.47
2024-05-09T08:17:14.082Z,101758.03
2024-05-09T08:19:46.678Z,101759.25
2024-05-09T08:22:14.699Z,101773.25
2024-05-09T08:24:46.888Z,101764.38
2024-05-09T08:27:14.184Z,101766.19
2024-05-09T08:29:44.102Z,101763.41
2024-05-09T08:32:13.734Z,101760.72
2024-05-09T08:34:46.586Z,101757.16
2024-05-09T08:37:21.433Z,101758.03
2024-05-09T08:39:53.482Z,101746.78
2024-05-09T08:42:23.718Z,101744.97
2024-05-09T08:44:54.907Z,101738.75
2024-05-09T08:47:22.298Z,101736.06
2024-05-09T08:49:58.672Z,101740.47
2024-05-09T08:52:26.234Z,101745.84
2024-05-09T08:54:56.249Z,101759.75
2024-05-09T08:57:23.690Z,101745.59
2024-05-09T08:59:55.626Z,101752.66
2024-05-09T09:02:23.733Z,101746.44
2024-05-09T09:05:11.217Z,101747.31
2024-05-09T09:07:39.678Z,101748.28
2024-05-09T09:10:15.119Z,101723.25
2024-05-09T09:12:45.068Z,101738.75
2024-05-09T09:15:15.065Z,101734.88
2024-05-09T09:17:42.393Z,101738.50
2024-05-09T09:20:19.391Z,101742.94
2024-05-09T09:22:55.188Z,101740.25
2024-05-09T09:25:25.666Z,101741.94
2024-05-09T09:27:52.979Z,101736.59
2024-05-09T09:30:34.051Z,101734.88
2024-05-09T09:33:04.464Z,101724.16
2024-05-09T09:35:38.663Z,101716.34
2024-05-09T09:38:07.735Z,101720.50
2024-05-09T09:40:43.093Z,101721.47
2024-05-09T09:43:19.414Z,101715.13
2024-05-09T09:45:53.522Z,101718.78
2024-05-09T09:48:22.832Z,101708.28
2024-05-09T09:50:55.909Z,101718.78
2024-05-09T09:53:23.843Z,101713.44
2024-05-09T09:55:56.000Z,101710.75
2024-05-09T09:58:24.159Z,101713.44
2024-05-09T10:00:54.371Z,101713.44
2024-05-09T10:03:21.858Z,101708.91
2024-05-09T10:05:52.596Z,101708.91
2024-05-09T10:08:24.186Z,101706.22
2024-05-09T10:10:54.476Z,101708.06
2024-05-09T10:13:33.147Z,101711.69
2024-05-09T10:16:10.910Z,101704.41
2024-05-09T10:18:38.967Z,101708.06
2024-05-09T10:21:18.971Z,101699.03
2024-05-09T10:24:00.848Z,101701.31
2024-05-09T10:26:35.669Z,101691.97
2024-05-09T10:29:11.592Z,101692.78
2024-05-09T10:31:44.063Z,101695.59
2024-05-09T10:34:17.868Z,101688.06
2024-05-09T10:36:48.010Z,101691.72
2024-05-09T10:39:19.179Z,101693.03
2024-05-09T10:41:49.236Z,101681.22
2024-05-09T10:44:17.130Z,101680.25
2024-05-09T10:46:47.516Z,101682.94
2024-05-09T10:49:15.265Z,101678.56
2024-05-09T10:51:48.480Z,101672.44
2024-05-09T10:54:18.539Z,101675.88
2024-05-09T10:56:48.408Z,101676.69
2024-05-09T10:59:15.658Z,101674.78
2024-05-09T11:01:45.759Z,101673.69
2024-05-09T11:04:14.274Z,101673.69
2024-05-09T11:06:44.594Z,101650.75
2024-05-09T11:09:12.666Z,101662.94
2024-05-09T11:11:45.379Z,101670.03
2024-05-09T11:14:13.179Z,101652.22
2024-05-09T11:16:43.081Z,101648.56
2024-05-09T11:19:12.996Z,101646.84
2024-05-09T11:21:43.370Z,101632.47
2024-05-09T11:24:11.646Z,101651.50
2024-05-09T11:26:45.734Z,101645.06
2024-05-09T11:29:15.000Z,101638.84
2024-05-09T11:31:49.576Z,101650.22
2024-05-09T11:34:17.049Z,101642.88
2024-05-09T11:36:47.060Z,101630.81
2024-05-09T11:39:14.932Z,101628.16
2024-05-09T11:41:47.552Z,101622.78
2024-05-09T11:44:14.826Z,101622.19
2024-05-09T11:46:46.296Z,101573.94
2024-05-09T11:49:13.782Z,101616.19
2024-05-09T11:51:43.831Z,101615.44
2024-05-09T11:54:13.815Z,101607.63
2024-05-09T11:56:41.104Z,101605.94
2024-05-09T11:59:13.772Z,101618.59
2024-05-09T12:01:41.316Z,101600.81
2024-05-09T12:04:12.158Z,101587.59
2024-05-09T12:06:40.306Z,101599.22
2024-05-09T12:09:10.302Z,101604.72
2024-05-09T12:11:37.844Z,101595.91
2024-05-09T12:14:08.259Z,101602.03
2024-05-09T12:16:38.651Z,101589.56
2024-05-09T12:19:08.788Z,101586.88
2024-05-09T12:21:36.259Z,101587.00
2024-05-09T12:24:06.376Z,101587.00
2024-05-09T12:26:33.635Z,101584.44
2024-05-09T12:29:03.568Z,101575.69
2024-05-09T12:31:30.874Z,101576.41
2024-05-09T12:34:03.551Z,101577.38
2024-05-09T12:36:31.235Z,101576.41
2024-05-09T12:39:01.290Z,101580.06
2024-05-09T12:41:31.282Z,101569.31
2024-05-09T12:43:58.585Z,101562.25
2024-05-09T12:46:28.768Z,101560.53
2024-05-09T12:48:56.388Z,101569.56
2024-05-09T12:51:31.172Z,101567.88
2024-05-09T12:53:58.500Z,101558.84
2024-05-09T12:56:28.567Z,101550.03
2024-05-09T12:58:55.958Z,101546.41
2024-05-09T13:01:26.002Z,101551.78
2024-05-09T13:03:53.562Z,101541.75
2024-05-09T13:06:23.686Z,101545.19
2024-05-09T13:08:53.698Z,101539.06
2024-05-09T13:11:23.734Z,101533.72
2024-05-09T13:13:51.022Z,101537.13
2024-05-09T13:16:21.456Z,101533.47
2024-05-09T13:18:49.041Z,101530.06
2024-05-09T13:21:19.197Z,101530.06
2024-05-09T13:23:46.449Z,101528.34
2024-05-09T13:26:19.066Z,101529.31
2024-05-09T13:28:46.394Z,101528.34
2024-05-09T13:31:16.323Z,101531.16
2024-05-09T13:33:43.764Z,101532.72
2024-05-09T13:36:13.760Z,101528.59
2024-05-09T13:38:41.078Z,101523.22
2024-05-09T13:41:11.703Z,101517.84
2024-05-09T13:43:42.051Z,101522.25
2024-05-09T13:46:12.539Z,101520.41
2024-05-09T13:48:39.957Z,101524.09
2024-05-09T13:51:10.124Z,101515.91
2024-05-09T13:53:37.386Z,101519.47
2024-05-09T13:56:08.837Z,101510.53
2024-05-09T13:58:36.393Z,101510.53
2024-05-09T14:01:09.012Z,101508.84
2024-05-09T14:03:36.496Z,101505.44
2024-05-09T14:06:08.798Z,101520.41
2024-05-09T14:08:37.889Z,101521.53
2024-05-09T14:11:08.093Z,101514.22
2024-05-09T14:13:35.325Z,101505.44
2024-05-09T14:16:05.436Z,101514.34
2024-05-09T14:18:35.657Z,101517.84
2024-05-09T14:21:05.618Z,101504.44
2024-05-09T14:23:32.895Z,101501.75
2024-05-09T14:26:02.881Z,101494.19
2024-05-09T14:28:30.167Z,101496.63
2024-05-09T14:31:01.366Z,101502.75
2024-05-09T14:33:30.802Z,101489.56
2024-05-09T14:36:03.759Z,101496.63
2024-05-09T14:38:31.041Z,101498.59
2024-05-09T14:41:01.053Z,101498.59
2024-05-09T14:43:28.403Z,101500.31
2024-05-09T14:45:59.521Z,101495.91
2024-05-09T14:48:27.178Z,101493.25
2024-05-09T14:50:57.424Z,101493.47
2024-05-09T14:53:28.347Z,101490.56
2024-05-09T14:55:58.486Z,101500.53
2024-05-09T14:58:26.525Z,101484.44
2024-05-09T15:00:56.742Z,101485.31
2024-05-09T15:03:24.130Z,101487.88
2024-05-09T15:05:54.178Z,101486.16
2024-05-09T15:08:21.692Z,101475.66
2024-05-09T15:10:54.579Z,101475.41
2024-05-09T15:13:22.030Z,101473.47
2024-05-09T15:15:52.100Z,101479.81
2024-05-09T15:18:19.766Z,101474.34
2024-05-09T15:20:50.050Z,101469.81
2024-05-09T15:23:17.433Z,101469.81
2024-05-09T15:25:47.471Z,101459.94
2024-05-09T15:28:17.917Z,101459.09
2024-05-09T15:30:48.364Z,101459.09
2024-05-09T15:33:16.075Z,101457.38
2024-05-09T15:35:47.033Z,101457.38
2024-05-09T15:38:15.352Z,101421.53
2024-05-09T15:40:45.269Z,101456.66
2024-05-09T15:43:12.821Z,101452.25
2024-05-09T15:45:45.461Z,101448.59
2024-05-09T15:48:13.163Z,101443.22
2024-05-09T15:50:43.481Z,101450.31
2024-05-09T15:53:12.396Z,101438.63
2024-05-09T15:55:43.095Z,101430.56
2024-05-09T15:58:11.096Z,101408.16
2024-05-09T16:00:43.459Z,101422.03
2024-05-09T16:03:15.625Z,101391.34
2024-05-09T16:05:47.933Z,101422.53
2024-05-09T16:08:16.036Z,101421.66
2024-05-09T16:10:47.075Z,101417.91
2024-05-09T16:13:15.601Z,101415.09
2024-05-09T16:15:46.582Z,101407.16
2024-05-09T16:18:16.913Z,101408.13
2024-05-09T16:20:49.460Z,101403.75
2024-05-09T16:23:17.772Z,101407.41
2024-05-09T16:25:48.206Z,101405.44
2024-05-09T16:28:16.818Z,101407.16
2024-05-09T16:30:46.923Z,101396.44
2024-05-09T16:33:19.605Z,101400.06
2024-05-09T16:35:50.047Z,101392.75
2024-05-09T16:38:17.509Z,101392.75
2024-05-09T16:40:47.814Z,101353.31
2024-05-09T16:43:15.779Z,101383.72
2024-05-09T16:45:47.312Z,101405.19
2024-05-09T16:48:17.465Z,101394.47
2024-05-09T16:50:47.401Z,101391.78
2024-05-09T16:53:14.794Z,101383.03
2024-05-09T16:55:44.704Z,101378.38
2024-05-09T16:58:12.755Z,101379.22
2024-05-09T17:00:44.062Z,101374.72
2024-05-09T17:03:15.086Z,101369.38
2024-05-09T17:05:50.558Z,101369.38
2024-05-09T17:08:18.652Z,101338.28
2024-05-09T17:10:49.940Z,101371.06
2024-05-09T17:13:20.543Z,101378.13
2024-05-09T17:15:51.342Z,101365.69
2024-05-09T17:18:18.738Z,101365.69
2024-05-09T17:20:52.590Z,101367.38
2024-05-09T17:23:19.877Z,101359.34
2024-05-09T17:25:49.895Z,101351.28
2024-05-09T17:28:17.427Z,101344.13
2024-05-09T17:30:48.628Z,101335.19
2024-05-09T17:33:16.072Z,101336.94
2024-05-09T17:35:50.368Z,101336.94
2024-05-09T17:38:23.036Z,101328.13
2024-05-09T17:40:53.727Z,101327.41
2024-05-09T17:43:21.224Z,101318.66
2024-05-09T17:45:51.493Z,101326.44
2024-05-09T17:48:19.810Z,101324.72
2024-05-09T17:50:51.576Z,101321.09
2024-05-09T17:53:21.620Z,101314.13
2024-05-09T17:55:53.960Z,101308.88
2024-05-09T17:58:21.506Z,101314.25
2024-05-09T18:00:51.779Z,101314.25
2024-05-09T18:03:19.190Z,101311.69
2024-05-09T18:05:49.725Z,101303.50
2024-05-09T18:08:17.023Z,101304.63
2024-05-09T18:13:17.025Z,101304.75
2024-05-09T18:15:47.035Z,101298.41
2024-05-09T18:18:14.561Z,101310.97
2024-05-09T18:20:46.156Z,101299.25
2024-05-09T18:23:16.244Z,101295.59
2024-05-09T18:25:54.734Z,101299.00
2024-05-09T18:30:52.388Z,101300.84
2024-05-09T18:33:20.767Z,101297.31
2024-05-09T18:35:50.899Z,101305.25
2024-05-09T18:38:18.631Z,101282.69
2024-05-09T18:40:51.228Z,101315.72
2024-05-09T18:43:20.250Z,101305.81
2024-05-09T18:45:53.900Z,101305.81
2024-05-09T18:48:22.237Z,101296.94
2024-05-09T18:50:52.427Z,101307.66
2024-05-09T18:53:19.716Z,101305.81
2024-05-09T18:55:52.328Z,101288.03
2024-05-09T18:58:23.304Z,101290.59
2024-05-09T19:00:53.270Z,101289.16
2024-05-09T19:03:25.015Z,101278.41
2024-05-09T19:05:52.462Z,101288.03
2024-05-09T19:08:22.482Z,101285.47
2024-05-09T19:10:52.731Z,101287.91
2024-05-09T19:13:22.951Z,101288.91
2024-05-09T19:15:50.463Z,101287.16
2024-05-09T19:18:20.535Z,101288.91
2024-05-09T19:20:47.886Z,101299.63
2024-05-09T19:23:17.931Z,101305.00
2024-05-09T19:25:45.317Z,101298.63
2024-05-09T19:28:18.066Z,101306.69
2024-05-09T19:30:45.600Z,101295.94
2024-05-09T19:33:15.656Z,101303.00
2024-05-09T19:35:43.670Z,101305.00
2024-05-09T19:38:14.235Z,101312.78
2024-05-09T19:40:41.625Z,101303.00
2024-05-09T19:43:12.072Z,101276.75
2024-05-09T19:45:42.353Z,101306.81
2024-05-09T19:48:12.545Z,101303.25
2024-05-09T20:19:12.992Z,101283.44
2024-05-09T20:21:42.363Z,101280.25
2024-05-09T20:24:12.400Z,101292.03
2024-05-09T20:26:39.655Z,101285.75
2024-05-09T20:29:09.587Z,101283.72
2024-05-09T20:31:36.896Z,101285.31
2024-05-09T20:34:06.872Z,101263.41
2024-05-09T20:36:36.920Z,101270.22
2024-05-09T20:39:07.028Z,101264.16
2024-05-09T20:41:36.595Z,101269.03
2024-05-09T20:44:07.135Z,101278.34
2024-05-09T20:46:34.507Z,101280.28
2024-05-09T20:49:04.723Z,101280.53
2024-05-09T20:51:32.210Z,101277.16
2024-05-09T20:54:04.900Z,101267.50
2024-05-09T20:56:32.161Z,101291.78
2024-05-09T20:59:02.155Z,101291.78
2024-05-09T21:01:29.976Z,101299.13
2024-05-09T21:04:00.170Z,101304.75
2024-05-09T21:06:27.744Z,101290.59
2024-05-09T21:08:58.565Z,101299.63
2024-05-09T21:11:28.578Z,101291.56
2024-05-09T21:13:58.531Z,101290.84
2024-05-09T21:16:25.968Z,101296.19
2024-05-09T21:18:56.076Z,101292.53
2024-05-09T21:21:23.479Z,101294.25
2024-05-09T21:23:53.411Z,101300.59
2024-05-09T21:26:23.142Z,101292.53
2024-05-09T21:28:55.770Z,101295.34
2024-05-09T21:31:23.149Z,101289.16
2024-05-09T21:33:53.311Z,101297.91
2024-05-09T21:36:20.602Z,101285.97
2024-05-09T21:38:50.573Z,101297.06
2024-05-09T21:41:17.843Z,101307.78
2024-05-09T21:43:47.765Z,101306.94
2024-05-09T21:46:17.707Z,101301.56
2024-05-09T21:48:47.730Z,101297.91
2024-05-09T21:51:15.418Z,101301.56
2024-05-09T21:53:45.374Z,101310.34
2024-05-09T21:56:12.612Z,101305.00
2024-05-09T21:58:42.534Z,101311.31
2024-05-09T22:01:09.941Z,101305.00
2024-05-09T22:03:42.652Z,101300.13
2024-05-09T22:06:10.003Z,101317.41
2024-05-09T22:08:39.873Z,101320.09
2024-05-09T22:11:07.255Z,101315.72
2024-05-09T22:13:37.249Z,101306.69
2024-05-09T22:16:05.001Z,101305.00
2024-05-09T22:18:35.060Z,101304.00
2024-05-09T22:21:05.189Z,101304.00
2024-05-09T22:23:35.166Z,101299.63
2024-05-09T22:26:02.406Z,101305.00
2024-05-09T22:28:32.625Z,101290.84
2024-05-09T22:30:59.918Z,101297.91
2024-05-09T22:33:30.084Z,101296.19
2024-05-09T22:35:57.453Z,101305.25
2024-05-09T22:38:30.068Z,101317.66
2024-05-09T22:40:57.339Z,101303.25
2024-05-09T22:43:27.357Z,101308.75
2024-05-09T22:45:55.173Z,101315.97
2024-05-09T22:48:26.466Z,101311.44
2024-05-09T22:50:54.540Z,101274.31
2024-05-09T22:53:25.014Z,101302.44
2024-05-09T22:55:55.280Z,101296.44
2024-05-09T22:58:26.031Z,101308.88
2024-05-09T23:00:53.663Z,101309.75
2024-05-09T23:03:23.908Z,101303.50
2024-05-09T23:05:51.321Z,101307.19
2024-05-09T23:08:21.276Z,101306.31
2024-05-09T23:10:48.759Z,101317.91
2024-05-09T23:13:21.438Z,101315.22
2024-05-09T23:15:48.837Z,101318.66
2024-05-09T23:18:18.827Z,101326.69
2024-05-09T23:20:46.288Z,101319.59
2024-05-09T23:23:16.274Z,101312.53
2024-05-09T23:25:43.914Z,101316.22
2024-05-09T23:28:14.359Z,101310.84
2024-05-09T23:30:44.411Z,101312.66
2024-05-09T23:33:15.181Z,101310.97
2024-05-09T23:35:43.810Z,101308.28
2024-05-09T23:38:14.193Z,101301.22
2024-05-09T23:40:42.612Z,101307.44
2024-05-09T23:43:13.724Z,101295.72
2024-05-09T23:45:43.960Z,101298.41
2024-05-09T23:48:14.350Z,101307.44
2024-05-09T23:50:42.061Z,101303.75
2024-05-09T23:53:12.055Z,101306.44
2024-05-09T23:55:39.590Z,101301.09
2024-05-09T23:58:11.699Z,101293.28
